H208 — WDJ6389 — position and weather

sailwx.info

Track history (hours):
 
Tides and Currents Weather Stations Pressure Air Temp Water Temp Dewpoint Dewpoint Depression Visibility Wind Speed Wind Dir Waves Ship Positions

H208

Owner: HNY Ferry Fleet LLC, New York, NY. More information available from US FCC via Universal Licensing System and Coast Guard Vessel Documentation Center.

Last reported at 2017-Dec-15 01:00 UTC. Time now 2017-Dec-15 02:29 UTC.
Position N 40°42' W 074°00'.

Length 26 m; draft 2 m.

Type: Passenger vessel. MMSI: 367797260.

Date/timePositionNaut miles runAvg speedWind from/ knotsBaromVisibWave heightAir tempDewpointWater temp
2017-Dec-15 01:00N 40°42' W 074°00'4 8.2
2017-Dec-15 00:30N 40°46' W 073°57'4 0.5
2017-Dec-14 17:31N 40°42' W 073°58'1 2.2
2017-Dec-14 17:01N 40°42' W 073°60'4 7.2
2017-Dec-14 16:31N 40°39' W 074°02'2 4.4
2017-Dec-14 16:01N 40°41' W 074°01'1 0.7
2017-Dec-14 15:00N 40°42' W 074°00'3 7.0
2017-Dec-14 14:31N 40°38' W 074°02'4 7.0
2017-Dec-14 14:00N 40°42' W 074°00'0 0.1
2017-Dec-14 13:30N 40°42' W 074°00'4 7.1
2017-Dec-14 13:01N 40°38' W 074°02'4 7.1
2017-Dec-14 12:31N 40°42' W 074°00'0 0.0
2017-Dec-14 12:00N 40°42' W 074°00'4 7.1
2017-Dec-14 11:31N 40°38' W 074°02'5 9.4
2017-Dec-14 11:00N 40°42' W 073°58'2 0.2
2017-Dec-14 03:00N 40°42' W 074°00'3 5.1
2017-Dec-14 02:30N 40°44' W 073°58'0 0.1
2017-Dec-14 02:00N 40°44' W 073°58'3 5.1
2017-Dec-14 01:30N 40°42' W 074°00'1 2.8
2017-Dec-14 01:00N 40°41' W 074°01'2 3.2
2017-Dec-14 00:31N 40°42' W 073°60'4 7.3
2017-Dec-14 00:01N 40°39' W 074°02'2 4.1
2017-Dec-13 23:30N 40°41' W 074°01'1 2.8
2017-Dec-13 23:01N 40°42' W 074°00'4 7.1
2017-Dec-13 22:31N 40°39' W 074°02'2 4.3
2017-Dec-13 22:00N 40°41' W 074°01'1 2.7
2017-Dec-13 21:30N 40°42' W 074°00'1 2.6
2017-Dec-13 21:00N 40°41' W 074°01'2 4.4
2017-Dec-13 20:31N 40°39' W 074°02'3 6.4
2017-Dec-13 20:00N 40°42' W 074°00'1 1.1
2017-Dec-13 19:30N 40°42' W 073°60'0 0.9
2017-Dec-13 19:00N 40°42' W 074°00'2 3.0
2017-Dec-13 18:31N 40°42' W 073°58'2 3.1
2017-Dec-13 18:00N 40°42' W 074°00'2 3.2
2017-Dec-13 17:30N 40°42' W 073°58'1 1.3
2017-Dec-13 17:01N 40°42' W 073°59'1 1.3
2017-Dec-13 16:30N 40°42' W 073°58'0 0.0
2017-Dec-13 16:00N 40°42' W 073°58'1 2.7
2017-Dec-13 15:31N 40°42' W 074°00'3 6.9
2017-Dec-13 15:00N 40°39' W 074°02'4 7.4
2017-Dec-13 14:30N 40°42' W 073°60'2 4.1
2017-Dec-13 14:01N 40°41' W 074°01'2 3.4
2017-Dec-13 13:31N 40°39' W 074°02'3 5.8
2017-Dec-13 13:00N 40°42' W 074°00'0 0.0
2017-Dec-13 12:31N 40°42' W 074°00'3 6.4
2017-Dec-13 12:01N 40°39' W 074°02'4 8.7
2017-Dec-13 11:30N 40°42' W 073°58'0 0.0
2017-Dec-13 11:00N 40°42' W 073°58'1 0.2
2017-Dec-13 03:00N 40°42' W 074°00'2 4.7
2017-Dec-13 02:30N 40°44' W 073°58'0 0.1
2017-Dec-13 02:01N 40°44' W 073°58'3 5.0
2017-Dec-13 01:31N 40°42' W 074°00'2 3.1
2017-Dec-13 01:00N 40°42' W 073°58'2 3.2
2017-Dec-13 00:31N 40°42' W 074°00'4 7.0
2017-Dec-13 00:01N 40°39' W 074°02'2 4.5
2017-Dec-12 23:31N 40°41' W 074°01'1 2.7
2017-Dec-12 23:01N 40°42' W 074°00'4 7.2
2017-Dec-12 22:30N 40°39' W 074°02'2 4.3
2017-Dec-12 22:00N 40°41' W 074°01'1 2.7
2017-Dec-12 21:30N 40°42' W 074°00'1 1.0
2017-Dec-12 21:01N 40°42' W 074°00'4 7.3
2017-Dec-12 20:30N 40°38' W 074°02'4 8.6
2017-Dec-12 20:01N 40°42' W 073°60'1 2.2
2017-Dec-12 19:30N 40°42' W 073°58'1 2.6
2017-Dec-12 19:00N 40°42' W 073°60'1 2.5
2017-Dec-12 18:30N 40°42' W 073°58'2 3.1
2017-Dec-12 18:00N 40°42' W 074°00'2 3.1
2017-Dec-12 17:30N 40°42' W 073°58'2 3.1
2017-Dec-12 17:00N 40°42' W 074°00'2 3.3
2017-Dec-12 16:31N 40°43' W 073°58'0 0.9
2017-Dec-12 16:00N 40°42' W 073°58'2 3.1
2017-Dec-12 15:30N 40°42' W 074°00'4 7.1
2017-Dec-12 15:00N 40°38' W 074°02'4 7.1
2017-Dec-12 14:31N 40°42' W 074°00'0 0.0
2017-Dec-12 14:00N 40°42' W 074°00'4 7.1
2017-Dec-12 13:31N 40°38' W 074°02'4 7.1
2017-Dec-12 13:00N 40°42' W 074°00'0 0.0
2017-Dec-12 12:30N 40°42' W 074°00'4 7.1
2017-Dec-12 12:01N 40°38' W 074°02'5 9.3
2017-Dec-12 11:30N 40°42' W 073°58'1 0.1
2017-Dec-12 01:30N 40°42' W 073°59'2 3.1
2017-Dec-12 01:00N 40°44' W 073°58'0 0.1
2017-Dec-12 00:30N 40°44' W 073°58'2 4.7
2017-Dec-12 00:00N 40°42' W 074°00'3 5.1
2017-Dec-11 23:31N 40°44' W 073°58'1 1.3
2017-Dec-11 23:01N 40°43' W 073°58'2 4.3
2017-Dec-11 22:31N 40°42' W 074°00'3 5.2
2017-Dec-11 22:01N 40°44' W 073°58'1 1.4
2017-Dec-11 21:30N 40°43' W 073°58'2 4.2
2017-Dec-11 21:01N 40°42' W 074°00'3 5.9
2017-Dec-11 20:31N 40°44' W 073°58'1 2.4
2017-Dec-11 20:00N 40°43' W 073°58'2 3.3
2017-Dec-11 19:30N 40°42' W 073°60'3 5.6
2017-Dec-11 19:00N 40°45' W 073°58'2 4.1
2017-Dec-11 18:31N 40°43' W 073°58'1 2.4
2017-Dec-11 18:00N 40°42' W 073°60'3 5.6
2017-Dec-11 17:31N 40°45' W 073°58'2 4.1
2017-Dec-11 17:00N 40°43' W 073°58'1 2.2
2017-Dec-11 16:31N 40°42' W 073°60'3 5.0
2017-Dec-11 16:00N 40°45' W 073°58'2 4.4
2017-Dec-11 15:30N 40°43' W 073°58'1 2.0
2017-Dec-11 15:00N 40°42' W 073°59'3 4.9
2017-Dec-11 14:30N 40°45' W 073°58'2 4.5
2017-Dec-11 14:01N 40°43' W 073°59'0 0.1
2017-Dec-11 13:30N 40°43' W 073°59'2 4.3
2017-Dec-11 13:00N 40°45' W 073°58'2 4.8
2017-Dec-11 12:30N 40°42' W 073°59'1 1.5
2017-Dec-11 12:00N 40°43' W 073°58'2 4.4
2017-Dec-11 11:30N 40°45' W 073°58'3 5.4
2017-Dec-11 11:00N 40°42' W 073°58'0 0.0
2017-Dec-11 10:30N 40°42' W 073°58'0 0.0
2017-Dec-11 03:31N 40°42' W 073°58'0 0.0
2017-Dec-11 03:30N 40°42' W 073°58'2 3.4
2017-Dec-11 03:01N 40°42' W 074°00'3 6.8
2017-Dec-11 02:31N 40°38' W 074°02'3 6.1
2017-Dec-11 02:01N 40°41' W 074°01'1 2.4
2017-Dec-11 01:30N 40°42' W 073°60'4 7.3
2017-Dec-11 01:00N 40°39' W 074°02'1 3.0
2017-Dec-11 00:30N 40°40' W 074°01'2 4.0
2017-Dec-11 00:01N 40°42' W 074°00'1 2.6
2017-Dec-10 23:30N 40°41' W 074°01'2 4.4
2017-Dec-10 23:00N 40°39' W 074°02'4 7.2
2017-Dec-10 22:31N 40°42' W 073°60'1 1.2
2017-Dec-10 22:01N 40°42' W 074°00'3 7.0
2017-Dec-10 21:31N 40°38' W 074°02'3 5.9
2017-Dec-10 21:01N 40°41' W 074°01'1 2.6
2017-Dec-10 20:31N 40°42' W 073°60'4 7.2
2017-Dec-10 20:01N 40°39' W 074°02'1 2.7
2017-Dec-10 19:31N 40°40' W 074°01'2 4.3
2017-Dec-10 19:00N 40°42' W 074°00'1 3.0
2017-Dec-10 18:30N 40°41' W 074°01'2 4.3
2017-Dec-10 18:00N 40°39' W 074°02'3 6.9
2017-Dec-10 17:31N 40°42' W 074°00'1 1.5
2017-Dec-10 17:01N 40°41' W 074°00'3 6.4
2017-Dec-10 16:31N 40°38' W 074°02'3 6.3
2017-Dec-10 16:00N 40°41' W 074°00'1 2.2
2017-Dec-10 15:31N 40°42' W 073°60'4 7.3
2017-Dec-10 15:00N 40°39' W 074°02'2 3.9
2017-Dec-10 14:31N 40°41' W 074°01'1 2.3
2017-Dec-10 14:00N 40°42' W 074°00'3 5.9
2017-Dec-10 13:30N 40°39' W 074°02'0 0.0
2017-Dec-10 13:00N 40°39' W 074°02'4 7.2
2017-Dec-10 12:30N 40°42' W 073°60'1 2.9
2017-Dec-10 12:01N 40°41' W 074°01'3 5.4
2017-Dec-10 11:30N 40°38' W 074°02'5 9.5
2017-Dec-10 11:01N 40°42' W 073°58'0 0.4
2017-Dec-10 10:30N 40°42' W 073°58'0 0.0
2017-Dec-10 03:29N 40°42' W 073°58'4 8.5
2017-Dec-10 03:00N 40°46' W 073°57'3 5.3
2017-Dec-10 02:31N 40°44' W 073°58'1 2.2
2017-Dec-10 02:00N 40°45' W 073°58'2 4.3
2017-Dec-10 01:30N 40°46' W 073°56'2 4.8
2017-Dec-10 01:00N 40°44' W 073°58'2 3.2
2017-Dec-10 00:31N 40°43' W 073°58'4 7.2
2017-Dec-09 23:59N 40°46' W 073°56'2 3.1
2017-Dec-09 23:30N 40°45' W 073°57'4 7.4
2017-Dec-09 23:00N 40°42' W 074°00'4 7.8
2017-Dec-09 22:30N 40°45' W 073°57'1 2.0
2017-Dec-09 22:00N 40°46' W 073°56'3 6.8
2017-Dec-09 21:30N 40°43' W 073°58'2 3.0
2017-Dec-09 21:00N 40°45' W 073°58'2 4.1
2017-Dec-09 20:30N 40°46' W 073°56'2 4.0
2017-Dec-09 20:00N 40°45' W 073°58'2 4.9
2017-Dec-09 19:31N 40°42' W 073°59'4 8.5
2017-Dec-09 18:59N 40°46' W 073°56'1 2.3
2017-Dec-09 18:30N 40°45' W 073°57'4 8.1
2017-Dec-09 18:00N 40°42' W 074°00'4 7.8
2017-Dec-09 17:29N 40°45' W 073°57'1 2.2
2017-Dec-09 17:00N 40°46' W 073°56'3 5.8
2017-Dec-09 16:30N 40°44' W 073°58'1 1.7
2017-Dec-09 16:00N 40°45' W 073°58'2 4.4
2017-Dec-09 15:30N 40°46' W 073°56'2 3.7
2017-Dec-09 15:00N 40°45' W 073°58'2 3.6
2017-Dec-09 14:31N 40°43' W 073°58'4 7.1
2017-Dec-09 14:00N 40°46' W 073°56'1 2.4
2017-Dec-09 13:30N 40°45' W 073°57'4 8.1
2017-Dec-09 13:01N 40°42' W 074°00'4 7.9
2017-Dec-09 12:30N 40°45' W 073°57'3 5.5
2017-Dec-09 12:00N 40°43' W 073°58'1 1.5
2017-Dec-09 11:30N 40°42' W 073°58'0 0.0
2017-Dec-09 10:42N 40°42' W 073°58'0 0.0
2017-Dec-09 10:30N 40°42' W 073°58'0 0.0
2017-Dec-09 01:46N 40°42' W 073°58'1 2.2
2017-Dec-09 01:30N 40°42' W 073°59'2 3.0
2017-Dec-09 01:00N 40°44' W 073°58'0 0.6
2017-Dec-09 00:30N 40°43' W 073°58'2 4.5
2017-Dec-09 00:00N 40°42' W 074°00'3 5.1
2017-Dec-08 23:30N 40°44' W 073°58'1 1.3
2017-Dec-08 23:00N 40°43' W 073°58'2 4.3
2017-Dec-08 22:30N 40°42' W 074°00'3 5.1
2017-Dec-08 22:01N 40°44' W 073°58'1 1.3
2017-Dec-08 21:31N 40°43' W 073°58'2 3.7
2017-Dec-08 21:00N 40°42' W 073°60'3 5.7
2017-Dec-08 20:30N 40°45' W 073°58'1 2.9
2017-Dec-08 20:01N 40°43' W 073°58'2 3.1
2017-Dec-08 19:30N 40°42' W 073°60'3 5.6
2017-Dec-08 19:01N 40°45' W 073°58'2 4.1
2017-Dec-08 18:31N 40°43' W 073°58'1 2.4
2017-Dec-08 18:00N 40°42' W 073°60'3 5.6
2017-Dec-08 17:31N 40°45' W 073°58'2 4.1
2017-Dec-08 17:01N 40°43' W 073°58'1 2.4
2017-Dec-08 16:31N 40°42' W 073°60'3 5.4
2017-Dec-08 16:01N 40°45' W 073°58'2 4.3
2017-Dec-08 15:31N 40°43' W 073°58'1 1.8
2017-Dec-08 15:01N 40°42' W 073°59'2 4.9
2017-Dec-08 14:30N 40°45' W 073°58'2 4.3
2017-Dec-08 14:01N 40°43' W 073°58'0 0.0
2017-Dec-08 13:31N 40°43' W 073°58'2 4.3
2017-Dec-08 13:00N 40°45' W 073°58'2 4.4
2017-Dec-08 12:31N 40°43' W 073°59'0 0.5
2017-Dec-08 12:01N 40°43' W 073°58'2 4.0
2017-Dec-08 11:30N 40°45' W 073°58'2 5.0
2017-Dec-08 11:00N 40°42' W 073°58'0 0.0
2017-Dec-08 10:30N 40°42' W 073°58'0 0.0
2017-Dec-08 03:54N 40°42' W 073°58'2 4.0
2017-Dec-08 03:30N 40°42' W 074°00'3 6.6
2017-Dec-08 03:01N 40°39' W 074°02'2 4.1
2017-Dec-08 02:31N 40°41' W 074°01'1 2.5
2017-Dec-08 02:01N 40°42' W 074°00'1 2.6
2017-Dec-08 01:30N 40°41' W 074°01'2 4.3
2017-Dec-08 01:01N 40°39' W 074°02'4 7.3
2017-Dec-08 00:30N 40°42' W 073°60'0 0.9
2017-Dec-08 00:01N 40°42' W 074°00'3 7.0
2017-Dec-07 23:30N 40°39' W 074°02'2 4.3
2017-Dec-07 23:01N 40°41' W 074°01'1 2.9
2017-Dec-07 22:31N 40°42' W 074°00'4 7.2
2017-Dec-07 22:01N 40°39' W 074°02'2 4.6
2017-Dec-07 21:31N 40°41' W 074°01'1 2.6
2017-Dec-07 21:01N 40°42' W 074°00'1 2.8
2017-Dec-07 20:30N 40°42' W 073°58'0 0.0
2017-Dec-07 20:00N 40°42' W 073°58'1 2.3
2017-Dec-07 19:30N 40°42' W 073°60'4 7.3
2017-Dec-07 19:01N 40°39' W 074°02'2 4.2
2017-Dec-07 18:31N 40°41' W 074°01'1 2.7
2017-Dec-07 18:00N 40°42' W 074°00'1 2.5
2017-Dec-07 17:31N 40°41' W 074°01'2 3.9
2017-Dec-07 17:01N 40°39' W 074°02'3 6.7
2017-Dec-07 16:31N 40°42' W 073°60'1 1.4
2017-Dec-07 16:01N 40°42' W 074°00'4 7.1
2017-Dec-07 15:31N 40°38' W 074°02'4 7.1
2017-Dec-07 15:01N 40°42' W 074°00'0 0.3
2017-Dec-07 14:30N 40°42' W 074°00'4 7.3
2017-Dec-07 14:00N 40°38' W 074°02'4 8.6
2017-Dec-07 13:31N 40°42' W 073°60'1 2.1
2017-Dec-07 13:01N 40°41' W 074°00'3 6.5
2017-Dec-07 12:31N 40°38' W 074°02'5 9.5
2017-Dec-07 12:01N 40°42' W 073°58'0 0.3
2017-Dec-07 11:30N 40°42' W 073°58'0 0.0
2017-Dec-07 04:14N 40°42' W 073°58'0 0.0
2017-Dec-07 04:00N 40°42' W 073°58'4 8.3
2017-Dec-07 03:31N 40°39' W 074°02'4 7.4
2017-Dec-07 03:00N 40°42' W 073°60'1 1.5
2017-Dec-07 02:31N 40°42' W 074°00'3 5.9
2017-Dec-07 02:00N 40°39' W 074°02'3 5.9
2017-Dec-07 01:31N 40°42' W 074°00'1 1.4
2017-Dec-07 01:00N 40°42' W 073°60'4 7.3
2017-Dec-07 00:31N 40°39' W 074°02'2 4.3
2017-Dec-07 00:00N 40°41' W 074°01'2 3.0
2017-Dec-06 23:30N 40°42' W 073°60'4 7.4
2017-Dec-06 23:00N 40°39' W 074°02'2 4.5
2017-Dec-06 22:31N 40°41' W 074°01'1 2.6
2017-Dec-06 22:01N 40°42' W 074°00'4 7.0
2017-Dec-06 21:31N 40°39' W 074°02'2 4.4
2017-Dec-06 21:01N 40°41' W 074°01'  
Track history (hours):
 
Tides and Currents Weather Stations Pressure Air Temp Water Temp Dewpoint Dewpoint Depression Visibility Wind Speed Wind Dir Waves Ship Positions

H208

Owner: HNY Ferry Fleet LLC, New York, NY. More information available from US FCC via Universal Licensing System and Coast Guard Vessel Documentation Center.

Last reported at 2017-Dec-15 01:00 UTC. Time now 2017-Dec-15 02:29 UTC.
Position N 40°42' W 074°00'.

Length 26 m; draft 2 m.

Type: Passenger vessel. MMSI: 367797260.

Date/timePositionNaut miles runAvg speedWind from/ knotsBaromVisibWave heightAir tempDewpointWater temp
2017-Dec-15 01:00N 40°42' W 074°00'4 8.2
2017-Dec-15 00:30N 40°46' W 073°57'4 0.5
2017-Dec-14 17:31N 40°42' W 073°58'1 2.2
2017-Dec-14 17:01N 40°42' W 073°60'4 7.2
2017-Dec-14 16:31N 40°39' W 074°02'2 4.4
2017-Dec-14 16:01N 40°41' W 074°01'1 0.7
2017-Dec-14 15:00N 40°42' W 074°00'3 7.0
2017-Dec-14 14:31N 40°38' W 074°02'4 7.0
2017-Dec-14 14:00N 40°42' W 074°00'0 0.1
2017-Dec-14 13:30N 40°42' W 074°00'4 7.1
2017-Dec-14 13:01N 40°38' W 074°02'4 7.1
2017-Dec-14 12:31N 40°42' W 074°00'0 0.0
2017-Dec-14 12:00N 40°42' W 074°00'4 7.1
2017-Dec-14 11:31N 40°38' W 074°02'5 9.4
2017-Dec-14 11:00N 40°42' W 073°58'2 0.2
2017-Dec-14 03:00N 40°42' W 074°00'3 5.1
2017-Dec-14 02:30N 40°44' W 073°58'0 0.1
2017-Dec-14 02:00N 40°44' W 073°58'3 5.1
2017-Dec-14 01:30N 40°42' W 074°00'1 2.8
2017-Dec-14 01:00N 40°41' W 074°01'2 3.2
2017-Dec-14 00:31N 40°42' W 073°60'4 7.3
2017-Dec-14 00:01N 40°39' W 074°02'2 4.1
2017-Dec-13 23:30N 40°41' W 074°01'1 2.8
2017-Dec-13 23:01N 40°42' W 074°00'4 7.1
2017-Dec-13 22:31N 40°39' W 074°02'2 4.3
2017-Dec-13 22:00N 40°41' W 074°01'1 2.7
2017-Dec-13 21:30N 40°42' W 074°00'1 2.6
2017-Dec-13 21:00N 40°41' W 074°01'2 4.4
2017-Dec-13 20:31N 40°39' W 074°02'3 6.4
2017-Dec-13 20:00N 40°42' W 074°00'1 1.1
2017-Dec-13 19:30N 40°42' W 073°60'0 0.9
2017-Dec-13 19:00N 40°42' W 074°00'2 3.0
2017-Dec-13 18:31N 40°42' W 073°58'2 3.1
2017-Dec-13 18:00N 40°42' W 074°00'2 3.2
2017-Dec-13 17:30N 40°42' W 073°58'1 1.3
2017-Dec-13 17:01N 40°42' W 073°59'1 1.3
2017-Dec-13 16:30N 40°42' W 073°58'0 0.0
2017-Dec-13 16:00N 40°42' W 073°58'1 2.7
2017-Dec-13 15:31N 40°42' W 074°00'3 6.9
2017-Dec-13 15:00N 40°39' W 074°02'4 7.4
2017-Dec-13 14:30N 40°42' W 073°60'2 4.1
2017-Dec-13 14:01N 40°41' W 074°01'2 3.4
2017-Dec-13 13:31N 40°39' W 074°02'3 5.8
2017-Dec-13 13:00N 40°42' W 074°00'0 0.0
2017-Dec-13 12:31N 40°42' W 074°00'3 6.4
2017-Dec-13 12:01N 40°39' W 074°02'4 8.7
2017-Dec-13 11:30N 40°42' W 073°58'0 0.0
2017-Dec-13 11:00N 40°42' W 073°58'1 0.2
2017-Dec-13 03:00N 40°42' W 074°00'2 4.7
2017-Dec-13 02:30N 40°44' W 073°58'0 0.1
2017-Dec-13 02:01N 40°44' W 073°58'3 5.0
2017-Dec-13 01:31N 40°42' W 074°00'2 3.1
2017-Dec-13 01:00N 40°42' W 073°58'2 3.2
2017-Dec-13 00:31N 40°42' W 074°00'4 7.0
2017-Dec-13 00:01N 40°39' W 074°02'2 4.5
2017-Dec-12 23:31N 40°41' W 074°01'1 2.7
2017-Dec-12 23:01N 40°42' W 074°00'4 7.2
2017-Dec-12 22:30N 40°39' W 074°02'2 4.3
2017-Dec-12 22:00N 40°41' W 074°01'1 2.7
2017-Dec-12 21:30N 40°42' W 074°00'1 1.0
2017-Dec-12 21:01N 40°42' W 074°00'4 7.3
2017-Dec-12 20:30N 40°38' W 074°02'4 8.6
2017-Dec-12 20:01N 40°42' W 073°60'1 2.2
2017-Dec-12 19:30N 40°42' W 073°58'1 2.6
2017-Dec-12 19:00N 40°42' W 073°60'1 2.5
2017-Dec-12 18:30N 40°42' W 073°58'2 3.1
2017-Dec-12 18:00N 40°42' W 074°00'2 3.1
2017-Dec-12 17:30N 40°42' W 073°58'2 3.1
2017-Dec-12 17:00N 40°42' W 074°00'2 3.3
2017-Dec-12 16:31N 40°43' W 073°58'0 0.9
2017-Dec-12 16:00N 40°42' W 073°58'2 3.1
2017-Dec-12 15:30N 40°42' W 074°00'4 7.1
2017-Dec-12 15:00N 40°38' W 074°02'4 7.1
2017-Dec-12 14:31N 40°42' W 074°00'0 0.0
2017-Dec-12 14:00N 40°42' W 074°00'4 7.1
2017-Dec-12 13:31N 40°38' W 074°02'4 7.1
2017-Dec-12 13:00N 40°42' W 074°00'0 0.0
2017-Dec-12 12:30N 40°42' W 074°00'4 7.1
2017-Dec-12 12:01N 40°38' W 074°02'5 9.3
2017-Dec-12 11:30N 40°42' W 073°58'1 0.1
2017-Dec-12 01:30N 40°42' W 073°59'2 3.1
2017-Dec-12 01:00N 40°44' W 073°58'0 0.1
2017-Dec-12 00:30N 40°44' W 073°58'2 4.7
2017-Dec-12 00:00N 40°42' W 074°00'3 5.1
2017-Dec-11 23:31N 40°44' W 073°58'1 1.3
2017-Dec-11 23:01N 40°43' W 073°58'2 4.3
2017-Dec-11 22:31N 40°42' W 074°00'3 5.2
2017-Dec-11 22:01N 40°44' W 073°58'1 1.4
2017-Dec-11 21:30N 40°43' W 073°58'2 4.2
2017-Dec-11 21:01N 40°42' W 074°00'3 5.9
2017-Dec-11 20:31N 40°44' W 073°58'1 2.4
2017-Dec-11 20:00N 40°43' W 073°58'2 3.3
2017-Dec-11 19:30N 40°42' W 073°60'3 5.6
2017-Dec-11 19:00N 40°45' W 073°58'2 4.1
2017-Dec-11 18:31N 40°43' W 073°58'1 2.4
2017-Dec-11 18:00N 40°42' W 073°60'3 5.6
2017-Dec-11 17:31N 40°45' W 073°58'2 4.1
2017-Dec-11 17:00N 40°43' W 073°58'1 2.2
2017-Dec-11 16:31N 40°42' W 073°60'3 5.0
2017-Dec-11 16:00N 40°45' W 073°58'2 4.4
2017-Dec-11 15:30N 40°43' W 073°58'1 2.0
2017-Dec-11 15:00N 40°42' W 073°59'3 4.9
2017-Dec-11 14:30N 40°45' W 073°58'2 4.5
2017-Dec-11 14:01N 40°43' W 073°59'0 0.1
2017-Dec-11 13:30N 40°43' W 073°59'2 4.3
2017-Dec-11 13:00N 40°45' W 073°58'2 4.8
2017-Dec-11 12:30N 40°42' W 073°59'1 1.5
2017-Dec-11 12:00N 40°43' W 073°58'2 4.4
2017-Dec-11 11:30N 40°45' W 073°58'3 5.4
2017-Dec-11 11:00N 40°42' W 073°58'0 0.0
2017-Dec-11 10:30N 40°42' W 073°58'0 0.0
2017-Dec-11 03:31N 40°42' W 073°58'0 0.0
2017-Dec-11 03:30N 40°42' W 073°58'2 3.4
2017-Dec-11 03:01N 40°42' W 074°00'3 6.8
2017-Dec-11 02:31N 40°38' W 074°02'3 6.1
2017-Dec-11 02:01N 40°41' W 074°01'1 2.4
2017-Dec-11 01:30N 40°42' W 073°60'4 7.3
2017-Dec-11 01:00N 40°39' W 074°02'1 3.0
2017-Dec-11 00:30N 40°40' W 074°01'2 4.0
2017-Dec-11 00:01N 40°42' W 074°00'1 2.6
2017-Dec-10 23:30N 40°41' W 074°01'2 4.4
2017-Dec-10 23:00N 40°39' W 074°02'4 7.2
2017-Dec-10 22:31N 40°42' W 073°60'1 1.2
2017-Dec-10 22:01N 40°42' W 074°00'3 7.0
2017-Dec-10 21:31N 40°38' W 074°02'3 5.9
2017-Dec-10 21:01N 40°41' W 074°01'1 2.6
2017-Dec-10 20:31N 40°42' W 073°60'4 7.2
2017-Dec-10 20:01N 40°39' W 074°02'1 2.7
2017-Dec-10 19:31N 40°40' W 074°01'2 4.3
2017-Dec-10 19:00N 40°42' W 074°00'1 3.0
2017-Dec-10 18:30N 40°41' W 074°01'2 4.3
2017-Dec-10 18:00N 40°39' W 074°02'3 6.9
2017-Dec-10 17:31N 40°42' W 074°00'1 1.5
2017-Dec-10 17:01N 40°41' W 074°00'3 6.4
2017-Dec-10 16:31N 40°38' W 074°02'3 6.3
2017-Dec-10 16:00N 40°41' W 074°00'1 2.2
2017-Dec-10 15:31N 40°42' W 073°60'4 7.3
2017-Dec-10 15:00N 40°39' W 074°02'2 3.9
2017-Dec-10 14:31N 40°41' W 074°01'1 2.3
2017-Dec-10 14:00N 40°42' W 074°00'3 5.9
2017-Dec-10 13:30N 40°39' W 074°02'0 0.0
2017-Dec-10 13:00N 40°39' W 074°02'4 7.2
2017-Dec-10 12:30N 40°42' W 073°60'1 2.9
2017-Dec-10 12:01N 40°41' W 074°01'3 5.4
2017-Dec-10 11:30N 40°38' W 074°02'5 9.5
2017-Dec-10 11:01N 40°42' W 073°58'0 0.4
2017-Dec-10 10:30N 40°42' W 073°58'0 0.0
2017-Dec-10 03:29N 40°42' W 073°58'4 8.5
2017-Dec-10 03:00N 40°46' W 073°57'3 5.3
2017-Dec-10 02:31N 40°44' W 073°58'1 2.2
2017-Dec-10 02:00N 40°45' W 073°58'2 4.3
2017-Dec-10 01:30N 40°46' W 073°56'2 4.8
2017-Dec-10 01:00N 40°44' W 073°58'2 3.2
2017-Dec-10 00:31N 40°43' W 073°58'4 7.2
2017-Dec-09 23:59N 40°46' W 073°56'2 3.1
2017-Dec-09 23:30N 40°45' W 073°57'4 7.4
2017-Dec-09 23:00N 40°42' W 074°00'4 7.8
2017-Dec-09 22:30N 40°45' W 073°57'1 2.0
2017-Dec-09 22:00N 40°46' W 073°56'3 6.8
2017-Dec-09 21:30N 40°43' W 073°58'2 3.0
2017-Dec-09 21:00N 40°45' W 073°58'2 4.1
2017-Dec-09 20:30N 40°46' W 073°56'2 4.0
2017-Dec-09 20:00N 40°45' W 073°58'2 4.9
2017-Dec-09 19:31N 40°42' W 073°59'4 8.5
2017-Dec-09 18:59N 40°46' W 073°56'1 2.3
2017-Dec-09 18:30N 40°45' W 073°57'4 8.1
2017-Dec-09 18:00N 40°42' W 074°00'4 7.8
2017-Dec-09 17:29N 40°45' W 073°57'1 2.2
2017-Dec-09 17:00N 40°46' W 073°56'3 5.8
2017-Dec-09 16:30N 40°44' W 073°58'1 1.7
2017-Dec-09 16:00N 40°45' W 073°58'2 4.4
2017-Dec-09 15:30N 40°46' W 073°56'2 3.7
2017-Dec-09 15:00N 40°45' W 073°58'2 3.6
2017-Dec-09 14:31N 40°43' W 073°58'4 7.1
2017-Dec-09 14:00N 40°46' W 073°56'1 2.4
2017-Dec-09 13:30N 40°45' W 073°57'4 8.1
2017-Dec-09 13:01N 40°42' W 074°00'4 7.9
2017-Dec-09 12:30N 40°45' W 073°57'3 5.5
2017-Dec-09 12:00N 40°43' W 073°58'1 1.5
2017-Dec-09 11:30N 40°42' W 073°58'0 0.0
2017-Dec-09 10:42N 40°42' W 073°58'0 0.0
2017-Dec-09 10:30N 40°42' W 073°58'0 0.0
2017-Dec-09 01:46N 40°42' W 073°58'1 2.2
2017-Dec-09 01:30N 40°42' W 073°59'2 3.0
2017-Dec-09 01:00N 40°44' W 073°58'0 0.6
2017-Dec-09 00:30N 40°43' W 073°58'2 4.5
2017-Dec-09 00:00N 40°42' W 074°00'3 5.1
2017-Dec-08 23:30N 40°44' W 073°58'1 1.3
2017-Dec-08 23:00N 40°43' W 073°58'2 4.3
2017-Dec-08 22:30N 40°42' W 074°00'3 5.1
2017-Dec-08 22:01N 40°44' W 073°58'1 1.3
2017-Dec-08 21:31N 40°43' W 073°58'2 3.7
2017-Dec-08 21:00N 40°42' W 073°60'3 5.7
2017-Dec-08 20:30N 40°45' W 073°58'1 2.9
2017-Dec-08 20:01N 40°43' W 073°58'2 3.1
2017-Dec-08 19:30N 40°42' W 073°60'3 5.6
2017-Dec-08 19:01N 40°45' W 073°58'2 4.1
2017-Dec-08 18:31N 40°43' W 073°58'1 2.4
2017-Dec-08 18:00N 40°42' W 073°60'3 5.6
2017-Dec-08 17:31N 40°45' W 073°58'2 4.1
2017-Dec-08 17:01N 40°43' W 073°58'1 2.4
2017-Dec-08 16:31N 40°42' W 073°60'3 5.4
2017-Dec-08 16:01N 40°45' W 073°58'2 4.3
2017-Dec-08 15:31N 40°43' W 073°58'1 1.8
2017-Dec-08 15:01N 40°42' W 073°59'2 4.9
2017-Dec-08 14:30N 40°45' W 073°58'2 4.3
2017-Dec-08 14:01N 40°43' W 073°58'0 0.0
2017-Dec-08 13:31N 40°43' W 073°58'2 4.3
2017-Dec-08 13:00N 40°45' W 073°58'2 4.4
2017-Dec-08 12:31N 40°43' W 073°59'0 0.5
2017-Dec-08 12:01N 40°43' W 073°58'2 4.0
2017-Dec-08 11:30N 40°45' W 073°58'2 5.0
2017-Dec-08 11:00N 40°42' W 073°58'0 0.0
2017-Dec-08 10:30N 40°42' W 073°58'0 0.0
2017-Dec-08 03:54N 40°42' W 073°58'2 4.0
2017-Dec-08 03:30N 40°42' W 074°00'3 6.6
2017-Dec-08 03:01N 40°39' W 074°02'2 4.1
2017-Dec-08 02:31N 40°41' W 074°01'1 2.5
2017-Dec-08 02:01N 40°42' W 074°00'1 2.6
2017-Dec-08 01:30N 40°41' W 074°01'2 4.3
2017-Dec-08 01:01N 40°39' W 074°02'4 7.3
2017-Dec-08 00:30N 40°42' W 073°60'0 0.9
2017-Dec-08 00:01N 40°42' W 074°00'3 7.0
2017-Dec-07 23:30N 40°39' W 074°02'2 4.3
2017-Dec-07 23:01N 40°41' W 074°01'1 2.9
2017-Dec-07 22:31N 40°42' W 074°00'4 7.2
2017-Dec-07 22:01N 40°39' W 074°02'2 4.6
2017-Dec-07 21:31N 40°41' W 074°01'1 2.6
2017-Dec-07 21:01N 40°42' W 074°00'1 2.8
2017-Dec-07 20:30N 40°42' W 073°58'0 0.0
2017-Dec-07 20:00N 40°42' W 073°58'1 2.3
2017-Dec-07 19:30N 40°42' W 073°60'4 7.3
2017-Dec-07 19:01N 40°39' W 074°02'2 4.2
2017-Dec-07 18:31N 40°41' W 074°01'1 2.7
2017-Dec-07 18:00N 40°42' W 074°00'1 2.5
2017-Dec-07 17:31N 40°41' W 074°01'2 3.9
2017-Dec-07 17:01N 40°39' W 074°02'3 6.7
2017-Dec-07 16:31N 40°42' W 073°60'1 1.4
2017-Dec-07 16:01N 40°42' W 074°00'4 7.1
2017-Dec-07 15:31N 40°38' W 074°02'4 7.1
2017-Dec-07 15:01N 40°42' W 074°00'0 0.3
2017-Dec-07 14:30N 40°42' W 074°00'4 7.3
2017-Dec-07 14:00N 40°38' W 074°02'4 8.6
2017-Dec-07 13:31N 40°42' W 073°60'1 2.1
2017-Dec-07 13:01N 40°41' W 074°00'3 6.5
2017-Dec-07 12:31N 40°38' W 074°02'5 9.5
2017-Dec-07 12:01N 40°42' W 073°58'0 0.3
2017-Dec-07 11:30N 40°42' W 073°58'0 0.0
2017-Dec-07 04:14N 40°42' W 073°58'0 0.0
2017-Dec-07 04:00N 40°42' W 073°58'4 8.3
2017-Dec-07 03:31N 40°39' W 074°02'4 7.4
2017-Dec-07 03:00N 40°42' W 073°60'1 1.5
2017-Dec-07 02:31N 40°42' W 074°00'3 5.9
2017-Dec-07 02:00N 40°39' W 074°02'3 5.9
2017-Dec-07 01:31N 40°42' W 074°00'1 1.4
2017-Dec-07 01:00N 40°42' W 073°60'4 7.3
2017-Dec-07 00:31N 40°39' W 074°02'2 4.3
2017-Dec-07 00:00N 40°41' W 074°01'2 3.0
2017-Dec-06 23:30N 40°42' W 073°60'4 7.4
2017-Dec-06 23:00N 40°39' W 074°02'2 4.5
2017-Dec-06 22:31N 40°41' W 074°01'1 2.6
2017-Dec-06 22:01N 40°42' W 074°00'4 7.0
2017-Dec-06 21:31N 40°39' W 074°02'2 4.4
2017-Dec-06 21:01N 40°41' W 074°01'  

Dump ship's entire track history